Time;durP1;ratioP1;P1;durP2;ratioP2;P2;SDS_P1;SDS_P2;PMS_P1;PMS_P2;Temp;Humidity;BMP_temperature;BMP_pressure;BME280_temperature;BME280_humidity;BME280_pressure;Samples;Min_cycle;Max_cycle;Signal;HPM_P1;HPM_P2
2024/03/17 00:00:27;;;;;;;13.32;8.57;;;;;;;;;;5027573;28;20057;-86
2024/03/17 00:02:52;;;;;;;14.70;9.05;;;;;;;;;;5007843;28;20387;-86
2024/03/17 00:05:18;;;;;;;16.20;9.73;;;;;;;;;;5024177;28;20044;-84
2024/03/17 00:07:44;;;;;;;15.73;8.82;;;;;;;;;;5041620;28;20436;-87
2024/03/17 00:10:10;;;;;;;17.35;8.88;;;;;;;;;;5011099;28;20102;-87
2024/03/17 00:12:36;;;;;;;15.20;8.82;;;;;;;;;;5016672;28;20120;-80
2024/03/17 00:15:02;;;;;;;17.95;9.10;;;;;;;;;;5027324;28;20099;-84
2024/03/17 00:17:27;;;;;;;12.98;8.15;;;;;;;;;;5009936;28;20090;-83
2024/03/17 00:19:53;;;;;;;14.75;8.48;;;;;;;;;;5029237;28;20053;-82
2024/03/17 00:22:18;;;;;;;18.83;9.00;;;;;;;;;;5009059;28;20050;-82
2024/03/17 00:24:45;;;;;;;13.30;8.73;;;;;;;;;;5029351;28;20099;-87
2024/03/17 00:27:11;;;;;;;24.73;9.55;;;;;;;;;;5049027;28;20040;-82
2024/03/17 00:29:37;;;;;;;16.00;8.60;;;;;;;;;;5015846;28;20049;-83
2024/03/17 00:32:03;;;;;;;14.60;9.40;;;;;;;;;;5014589;28;20053;-81
2024/03/17 00:34:28;;;;;;;12.05;7.80;;;;;;;;;;5011172;28;20064;-85
2024/03/17 00:36:54;;;;;;;14.45;8.25;;;;;;;;;;5022560;28;20080;-78
2024/03/17 00:39:19;;;;;;;14.02;8.13;;;;;;;;;;5025641;28;20118;-79
2024/03/17 00:41:45;;;;;;;12.82;8.48;;;;;;;;;;5030423;28;20052;-77
2024/03/17 00:44:10;;;;;;;14.38;8.63;;;;;;;;;;5032562;28;20073;-78
2024/03/17 00:46:37;;;;;;;14.63;7.78;;;;;;;;;;5031572;28;20053;-77
2024/03/17 00:49:03;;;;;;;14.00;8.05;;;;;;;;;;5033480;28;20060;-78
2024/03/17 00:51:28;;;;;;;13.35;8.48;;;;;;;;;;5033323;28;20056;-77
2024/03/17 00:53:56;;;;;;;13.93;7.25;;;;;;;;;;5017094;28;20123;-78
2024/03/17 00:56:22;;;;;;;14.63;8.73;;;;;;;;;;5030236;28;20057;-78
2024/03/17 00:58:47;;;;;;;15.65;8.55;;;;;;;;;;5027502;28;20045;-77
2024/03/17 01:01:13;;;;;;;12.35;7.47;;;;;;;;;;5020470;28;20486;-78
2024/03/17 01:03:41;;;;;;;14.07;7.72;;;;;;;;;;5013460;28;20056;-78
2024/03/17 01:06:07;;;;;;;13.85;7.20;;;;;;;;;;5040187;28;20060;-78
2024/03/17 01:08:33;;;;;;;13.95;7.18;;;;;;;;;;5052923;28;20045;-78
2024/03/17 01:10:59;;;;;;;14.20;6.90;;;;;;;;;;5031497;28;20053;-78
2024/03/17 01:13:25;;;;;;;12.73;7.82;;;;;;;;;;5030648;28;20454;-78
2024/03/17 01:15:53;;;;;;;12.60;7.75;;;;;;;;;;5026342;28;20052;-78
2024/03/17 01:18:19;;;;;;;13.23;7.47;;;;;;;;;;5027387;28;20053;-78
2024/03/17 01:20:45;;;;;;;13.55;7.30;;;;;;;;;;5032182;28;20121;-78
2024/03/17 01:23:11;;;;;;;12.23;7.38;;;;;;;;;;5031203;28;20045;-77
2024/03/17 01:25:37;;;;;;;14.70;7.43;;;;;;;;;;5021197;28;20543;-78
2024/03/17 01:28:06;;;;;;;10.15;7.32;;;;;;;;;;5027174;28;20091;-78
2024/03/17 01:30:32;;;;;;;11.80;7.10;;;;;;;;;;5020702;28;20779;-77
2024/03/17 01:32:59;;;;;;;10.43;6.82;;;;;;;;;;5026151;28;20497;-77
2024/03/17 01:35:25;;;;;;;13.68;6.82;;;;;;;;;;5035009;28;20048;-78
2024/03/17 01:37:50;;;;;;;9.57;6.40;;;;;;;;;;5022557;28;20053;-78
2024/03/17 01:40:16;;;;;;;12.00;6.88;;;;;;;;;;5011625;28;20345;-79
2024/03/17 01:42:41;;;;;;;16.70;8.13;;;;;;;;;;5030519;28;20080;-76
2024/03/17 01:45:22;;;;;;;12.27;7.22;;;;;;;;;;5005735;28;20051;-77
2024/03/17 01:48:00;;;;;;;11.40;7.25;;;;;;;;;;5008596;28;20053;-77
2024/03/17 01:50:26;;;;;;;14.40;7.90;;;;;;;;;;5038029;28;20051;-78
2024/03/17 01:52:53;;;;;;;13.18;7.30;;;;;;;;;;5030643;28;20455;-78
2024/03/17 01:55:19;;;;;;;9.85;7.13;;;;;;;;;;5005574;28;20064;-78
2024/03/17 01:57:45;;;;;;;12.23;7.18;;;;;;;;;;4999344;28;20053;-78
2024/03/17 02:00:12;;;;;;;13.23;7.60;;;;;;;;;;5045781;28;20061;-78
2024/03/17 02:02:38;;;;;;;12.50;6.90;;;;;;;;;;5030387;28;20405;-78
2024/03/17 02:05:03;;;;;;;16.25;7.97;;;;;;;;;;5017405;28;20056;-77
2024/03/17 02:07:29;;;;;;;13.15;7.07;;;;;;;;;;5034506;28;20144;-78
2024/03/17 02:09:58;;;;;;;10.27;6.60;;;;;;;;;;5030019;28;20057;-78
2024/03/17 02:12:24;;;;;;;11.82;7.28;;;;;;;;;;5028250;28;20507;-78
2024/03/17 02:14:49;;;;;;;11.68;6.90;;;;;;;;;;5025835;28;20049;-77
2024/03/17 02:17:15;;;;;;;12.85;7.18;;;;;;;;;;5020044;28;20187;-76
2024/03/17 02:19:40;;;;;;;11.90;7.10;;;;;;;;;;5024458;28;20595;-77
2024/03/17 02:22:13;;;;;;;15.77;7.57;;;;;;;;;;5018984;28;20064;-77
2024/03/17 02:24:38;;;;;;;11.60;6.97;;;;;;;;;;5001834;28;21014;-78
2024/03/17 02:27:04;;;;;;;14.25;7.28;;;;;;;;;;5011359;28;20066;-77
2024/03/17 02:29:29;;;;;;;12.98;7.07;;;;;;;;;;5026656;28;20152;-77
2024/03/17 02:31:55;;;;;;;11.68;6.75;;;;;;;;;;5035258;28;20497;-78
2024/03/17 02:34:20;;;;;;;13.52;7.13;;;;;;;;;;5010882;28;20045;-78
2024/03/17 02:36:46;;;;;;;11.93;6.78;;;;;;;;;;5030361;28;20527;-77
2024/03/17 02:41:56;;;;;;;12.40;6.82;;;;;;;;;;5045534;28;20055;-78
2024/03/17 02:44:21;;;;;;;15.50;7.03;;;;;;;;;;5023899;28;20456;-77
2024/03/17 02:46:47;;;;;;;9.40;6.90;;;;;;;;;;5040135;28;20709;-77
2024/03/17 02:49:14;;;;;;;17.40;7.45;;;;;;;;;;5020736;28;20076;-77
2024/03/17 02:51:39;;;;;;;13.45;7.28;;;;;;;;;;5023221;28;20122;-77
2024/03/17 02:54:05;;;;;;;14.63;7.30;;;;;;;;;;5019329;28;20057;-76
2024/03/17 02:56:31;;;;;;;11.93;7.63;;;;;;;;;;5023672;28;20065;-77
2024/03/17 02:58:56;;;;;;;12.55;6.97;;;;;;;;;;5027323;28;20134;-76
2024/03/17 03:01:22;;;;;;;15.18;7.80;;;;;;;;;;5015637;28;20109;-79
2024/03/17 03:03:47;;;;;;;12.07;6.82;;;;;;;;;;5033528;28;20516;-79
2024/03/17 03:06:13;;;;;;;18.90;8.20;;;;;;;;;;5029387;28;20060;-78
2024/03/17 03:08:40;;;;;;;13.93;7.63;;;;;;;;;;5018485;28;20049;-79
2024/03/17 03:11:07;;;;;;;14.80;7.72;;;;;;;;;;5030591;28;20045;-79
2024/03/17 03:13:32;;;;;;;13.68;7.72;;;;;;;;;;5008999;28;20065;-79
2024/03/17 03:15:58;;;;;;;19.30;8.40;;;;;;;;;;5016113;28;20454;-79
2024/03/17 03:18:23;;;;;;;16.98;7.75;;;;;;;;;;5000596;28;20791;-78
2024/03/17 03:20:52;;;;;;;15.82;7.57;;;;;;;;;;5017657;28;20057;-78
2024/03/17 03:23:18;;;;;;;13.98;7.78;;;;;;;;;;5022767;28;20481;-78
2024/03/17 03:25:44;;;;;;;13.35;7.78;;;;;;;;;;5013679;28;20064;-77
2024/03/17 03:28:09;;;;;;;14.57;7.68;;;;;;;;;;5029053;28;20045;-78
2024/03/17 03:30:36;;;;;;;16.20;8.02;;;;;;;;;;5030029;28;20755;-77
2024/03/17 03:33:04;;;;;;;13.50;7.88;;;;;;;;;;5020734;28;20049;-78
2024/03/17 03:35:30;;;;;;;15.65;7.47;;;;;;;;;;5031265;28;20723;-77
2024/03/17 03:37:56;;;;;;;11.73;7.82;;;;;;;;;;5029399;28;20088;-78
2024/03/17 03:40:21;;;;;;;14.13;8.18;;;;;;;;;;5021992;28;20531;-78
2024/03/17 03:42:47;;;;;;;17.20;8.38;;;;;;;;;;5034923;28;20080;-78
2024/03/17 03:45:13;;;;;;;12.40;7.25;;;;;;;;;;5032027;28;20056;-78
2024/03/17 03:47:42;;;;;;;11.48;7.63;;;;;;;;;;5005290;28;20542;-77
2024/03/17 03:50:11;;;;;;;12.90;7.95;;;;;;;;;;5021722;28;20067;-77
2024/03/17 03:52:37;;;;;;;13.98;7.35;;;;;;;;;;5028320;28;20068;-78
2024/03/17 03:55:04;;;;;;;13.60;7.45;;;;;;;;;;5039181;28;20060;-78
2024/03/17 03:57:30;;;;;;;11.50;8.07;;;;;;;;;;5038719;28;20429;-77
2024/03/17 03:59:55;;;;;;;10.82;7.18;;;;;;;;;;5004140;28;20057;-77
2024/03/17 04:02:21;;;;;;;13.98;7.97;;;;;;;;;;5006152;28;20045;-78
2024/03/17 04:04:47;;;;;;;11.18;8.02;;;;;;;;;;5016802;28;20072;-78
2024/03/17 04:07:13;;;;;;;11.13;7.85;;;;;;;;;;5021498;28;20050;-78
2024/03/17 04:09:38;;;;;;;12.35;7.70;;;;;;;;;;5028077;28;20131;-78
2024/03/17 04:12:04;;;;;;;11.95;8.20;;;;;;;;;;5020562;28;20601;-78
2024/03/17 04:14:30;;;;;;;12.55;7.85;;;;;;;;;;5013292;28;20065;-78
2024/03/17 04:16:56;;;;;;;11.95;7.80;;;;;;;;;;5021045;28;20111;-78
2024/03/17 04:19:21;;;;;;;14.43;8.07;;;;;;;;;;5021683;28;20044;-78
2024/03/17 04:21:47;;;;;;;13.02;7.95;;;;;;;;;;5023830;28;20405;-79
2024/03/17 04:24:12;;;;;;;15.23;8.10;;;;;;;;;;5008435;28;20483;-79
2024/03/17 04:26:38;;;;;;;14.13;8.05;;;;;;;;;;5027204;28;20787;-78
2024/03/17 04:29:05;;;;;;;12.05;8.32;;;;;;;;;;5011202;28;20123;-79
2024/03/17 04:31:31;;;;;;;12.80;9.02;;;;;;;;;;5027157;28;20053;-79
2024/03/17 04:33:56;;;;;;;13.77;7.97;;;;;;;;;;5007802;28;20060;-78
2024/03/17 04:36:22;;;;;;;15.77;8.90;;;;;;;;;;5036736;28;20052;-79
2024/03/17 04:38:48;;;;;;;15.65;9.13;;;;;;;;;;5030446;28;20052;-78
2024/03/17 04:41:16;;;;;;;13.48;8.57;;;;;;;;;;5021624;28;20061;-78
2024/03/17 04:43:42;;;;;;;;;;;;;;;;;;5023864;28;20698;-79
2024/03/17 04:46:11;;;;;;;16.42;8.68;;;;;;;;;;5014881;28;20041;-78
2024/03/17 04:48:37;;;;;;;10.77;8.95;;;;;;;;;;5041539;28;20060;-78
2024/03/17 04:51:02;;;;;;;10.98;8.32;;;;;;;;;;5022576;28;20052;-78
2024/03/17 04:53:29;;;;;;;13.40;8.88;;;;;;;;;;5029435;28;20482;-79
2024/03/17 04:56:02;;;;;;;13.82;8.80;;;;;;;;;;4996833;28;20063;-79
2024/03/17 04:58:27;;;;;;;13.55;8.57;;;;;;;;;;5024776;28;20052;-78
2024/03/17 05:00:53;;;;;;;16.05;8.55;;;;;;;;;;5018247;28;20057;-78
2024/03/17 05:03:18;;;;;;;11.95;7.90;;;;;;;;;;5024374;28;20064;-79
2024/03/17 05:05:44;;;;;;;13.00;8.50;;;;;;;;;;5029832;28;20048;-79
2024/03/17 05:08:09;;;;;;;12.40;8.18;;;;;;;;;;5031156;28;20385;-78
2024/03/17 05:10:35;;;;;;;12.00;8.02;;;;;;;;;;5013956;28;20607;-79
2024/03/17 05:13:00;;;;;;;11.35;8.25;;;;;;;;;;5017694;28;20163;-79
2024/03/17 05:15:26;;;;;;;14.13;8.63;;;;;;;;;;5024954;28;20064;-78
2024/03/17 05:17:51;;;;;;;13.70;8.60;;;;;;;;;;5014736;28;20103;-79
2024/03/17 05:20:17;;;;;;;11.65;8.10;;;;;;;;;;5006381;28;20057;-79
2024/03/17 05:22:44;;;;;;;14.50;9.18;;;;;;;;;;5020933;28;20080;-78
2024/03/17 05:25:09;;;;;;;12.38;9.15;;;;;;;;;;5035285;28;20060;-78
2024/03/17 05:27:35;;;;;;;13.45;8.65;;;;;;;;;;5024895;28;20048;-78
2024/03/17 05:30:01;;;;;;;13.85;9.00;;;;;;;;;;5011783;28;20759;-78
2024/03/17 05:32:26;;;;;;;13.57;9.45;;;;;;;;;;5029403;28;20098;-79
2024/03/17 05:34:52;;;;;;;12.27;9.07;;;;;;;;;;5033633;28;20414;-80
2024/03/17 05:37:17;;;;;;;11.65;8.68;;;;;;;;;;5023385;28;20422;-78
2024/03/17 05:39:43;;;;;;;14.10;8.82;;;;;;;;;;5007077;28;20057;-77
2024/03/17 05:42:08;;;;;;;12.45;9.18;;;;;;;;;;5036345;28;20049;-76
2024/03/17 05:44:49;;;;;;;15.40;9.43;;;;;;;;;;5030614;28;20060;-77
2024/03/17 05:47:18;;;;;;;13.82;9.40;;;;;;;;;;5034842;28;20106;-77
2024/03/17 05:49:44;;;;;;;13.73;9.60;;;;;;;;;;5046085;28;20055;-77
2024/03/17 05:52:13;;;;;;;13.98;9.48;;;;;;;;;;5028348;28;20053;-76
2024/03/17 05:54:39;;;;;;;13.77;9.80;;;;;;;;;;5024675;28;20049;-76
2024/03/17 05:57:04;;;;;;;13.20;9.35;;;;;;;;;;5030962;28;20056;-76
2024/03/17 05:59:35;;;;;;;15.98;10.48;;;;;;;;;;5022215;28;20063;-77
2024/03/17 06:02:01;;;;;;;14.32;9.80;;;;;;;;;;5065276;28;20049;-77
2024/03/17 06:04:26;;;;;;;13.23;9.20;;;;;;;;;;5040573;28;20396;-76
2024/03/17 06:06:52;;;;;;;12.43;9.35;;;;;;;;;;5052026;28;20473;-77
2024/03/17 06:09:19;;;;;;;13.27;9.25;;;;;;;;;;5035869;28;20107;-76
2024/03/17 06:11:45;;;;;;;14.30;9.77;;;;;;;;;;5032667;28;20048;-76
2024/03/17 06:14:12;;;;;;;15.75;10.18;;;;;;;;;;5021821;28;20041;-77
2024/03/17 06:16:38;;;;;;;14.80;10.00;;;;;;;;;;5033730;28;20053;-77
2024/03/17 06:19:04;;;;;;;15.40;9.75;;;;;;;;;;5044129;28;20129;-76
2024/03/17 06:21:29;;;;;;;15.52;10.05;;;;;;;;;;5029991;28;20522;-77
2024/03/17 06:23:55;;;;;;;15.98;10.73;;;;;;;;;;5035732;28;20080;-77
2024/03/17 06:26:20;;;;;;;15.13;10.07;;;;;;;;;;5007002;28;20607;-78
2024/03/17 06:28:46;;;;;;;16.42;10.80;;;;;;;;;;5048174;28;20256;-84
2024/03/17 06:31:11;;;;;;;16.52;10.73;;;;;;;;;;5012265;28;20123;-82
2024/03/17 06:33:37;;;;;;;14.90;10.80;;;;;;;;;;5039692;28;20110;-80
2024/03/17 06:36:06;;;;;;;17.20;10.85;;;;;;;;;;5031467;28;20102;-83
2024/03/17 06:38:32;;;;;;;15.45;10.20;;;;;;;;;;5027495;28;20057;-82
2024/03/17 06:40:58;;;;;;;16.05;11.13;;;;;;;;;;5029627;28;20772;-85
2024/03/17 06:43:23;;;;;;;19.67;11.57;;;;;;;;;;5006387;28;20044;-84
2024/03/17 06:45:58;;;;;;;17.10;10.52;;;;;;;;;;5037121;28;20049;-83
2024/03/17 06:48:24;;;;;;;14.05;10.75;;;;;;;;;;5023141;28;20511;-80
2024/03/17 06:50:56;;;;;;;14.02;10.75;;;;;;;;;;5031417;28;20581;-81
2024/03/17 06:53:22;;;;;;;15.07;10.40;;;;;;;;;;5033782;28;20106;-84
2024/03/17 06:55:58;;;;;;;18.33;11.32;;;;;;;;;;5018301;28;20099;-85
2024/03/17 06:58:23;;;;;;;14.93;10.80;;;;;;;;;;5015756;28;20062;-83
2024/03/17 07:00:53;;;;;;;17.17;10.73;;;;;;;;;;5014922;28;20052;-82
2024/03/17 07:03:18;;;;;;;15.05;8.00;;;;;;;;;;5030659;28;20064;-86
2024/03/17 07:05:50;;;;;;;17.95;10.88;;;;;;;;;;5015915;28;20041;-83
2024/03/17 07:08:16;;;;;;;15.25;10.30;;;;;;;;;;5018773;28;20070;-82
2024/03/17 07:10:41;;;;;;;17.90;11.18;;;;;;;;;;5025091;28;20048;-84
2024/03/17 07:13:07;;;;;;;17.23;9.95;;;;;;;;;;5002545;28;20053;-85
2024/03/17 07:15:32;;;;;;;14.38;8.75;;;;;;;;;;5011387;28;20099;-85
2024/03/17 07:17:58;;;;;;;9.77;7.95;;;;;;;;;;5022564;28;20055;-85
2024/03/17 07:20:23;;;;;;;12.07;8.52;;;;;;;;;;5030527;28;20045;-83
2024/03/17 07:22:50;;;;;;;16.48;8.55;;;;;;;;;;5028691;28;20057;-86
2024/03/17 07:25:15;;;;;;;14.20;8.25;;;;;;;;;;5027818;28;20053;-84
2024/03/17 07:27:40;;;;;;;12.15;7.57;;;;;;;;;;5011029;28;20107;-85
2024/03/17 07:30:06;;;;;;;9.45;6.82;;;;;;;;;;5041832;28;20101;-84
2024/03/17 07:32:32;;;;;;;10.70;7.53;;;;;;;;;;5032761;28;20057;-85
2024/03/17 07:34:57;;;;;;;10.07;7.10;;;;;;;;;;5029028;28;20095;-79
2024/03/17 07:37:22;;;;;;;11.65;7.50;;;;;;;;;;5012556;28;20057;-82
2024/03/17 07:39:49;;;;;;;12.65;8.38;;;;;;;;;;5026725;28;20057;-84
2024/03/17 07:42:15;;;;;;;11.40;7.38;;;;;;;;;;5003157;28;20541;-83
2024/03/17 07:44:43;;;;;;;11.40;7.20;;;;;;;;;;5007920;28;20057;-85
2024/03/17 07:47:08;;;;;;;10.82;8.00;;;;;;;;;;5024602;28;20064;-84
2024/03/17 07:49:34;;;;;;;8.93;6.30;;;;;;;;;;5042498;28;20076;-84
2024/03/17 07:52:00;;;;;;;12.32;8.00;;;;;;;;;;5028963;28;20049;-81
2024/03/17 07:54:26;;;;;;;13.13;6.95;;;;;;;;;;5015049;28;20128;-83
2024/03/17 07:56:52;;;;;;;11.48;7.43;;;;;;;;;;5007571;28;20060;-83
2024/03/17 07:59:17;;;;;;;8.75;5.85;;;;;;;;;;5010319;28;20528;-85
2024/03/17 08:01:43;;;;;;;15.00;7.78;;;;;;;;;;5012885;28;20449;-84
2024/03/17 08:04:11;;;;;;;9.98;6.95;;;;;;;;;;4993548;28;20080;-83
2024/03/17 08:06:38;;;;;;;10.88;6.38;;;;;;;;;;5004980;28;20061;-82
2024/03/17 08:09:03;;;;;;;9.70;5.78;;;;;;;;;;5021718;28;20398;-86
2024/03/17 08:11:30;;;;;;;9.27;6.00;;;;;;;;;;5015723;28;20081;-82
2024/03/17 08:13:55;;;;;;;10.23;6.25;;;;;;;;;;5021440;28;20061;-86
2024/03/17 08:16:21;;;;;;;10.75;5.43;;;;;;;;;;5008624;28;20092;-86
2024/03/17 08:18:46;;;;;;;9.35;5.40;;;;;;;;;;5012465;28;20065;-86
2024/03/17 08:21:11;;;;;;;7.68;5.20;;;;;;;;;;5025317;28;20052;-86
2024/03/17 08:23:42;;;;;;;8.68;5.93;;;;;;;;;;5014837;28;20063;-82
2024/03/17 08:26:08;;;;;;;10.27;5.05;;;;;;;;;;5012879;28;20517;-86
2024/03/17 08:28:34;;;;;;;10.70;5.22;;;;;;;;;;5030563;28;20156;-87
2024/03/17 08:31:00;;;;;;;10.73;5.70;;;;;;;;;;5032857;28;20593;-83
2024/03/17 08:33:26;;;;;;;9.57;4.55;;;;;;;;;;5018875;28;20488;-86
2024/03/17 08:35:52;;;;;;;8.57;5.88;;;;;;;;;;5029624;28;20048;-87
2024/03/17 08:38:20;;;;;;;7.10;5.10;;;;;;;;;;5010228;28;20045;-80
2024/03/17 08:40:46;;;;;;;7.35;5.25;;;;;;;;;;5020348;28;20052;-81
2024/03/17 08:43:12;;;;;;;11.95;5.47;;;;;;;;;;5035363;28;20408;-81
2024/03/17 08:45:37;;;;;;;7.35;4.95;;;;;;;;;;5011305;28;20056;-81
2024/03/17 08:48:03;;;;;;;8.95;4.70;;;;;;;;;;5021691;28;20057;-81
2024/03/17 08:50:28;;;;;;;7.40;4.90;;;;;;;;;;5034382;28;20147;-80
2024/03/17 08:52:54;;;;;;;8.48;5.10;;;;;;;;;;5000479;28;20061;-81
2024/03/17 08:55:19;;;;;;;10.57;4.90;;;;;;;;;;5025056;28;20135;-81
2024/03/17 08:57:45;;;;;;;6.95;4.18;;;;;;;;;;4998075;28;20076;-80
2024/03/17 09:00:11;;;;;;;7.93;4.93;;;;;;;;;;5011291;28;20052;-81
2024/03/17 09:02:36;;;;;;;8.30;4.97;;;;;;;;;;5008191;28;20057;-81
2024/03/17 09:05:04;;;;;;;7.93;4.97;;;;;;;;;;5026232;28;20150;-79
2024/03/17 09:07:29;;;;;;;7.78;5.47;;;;;;;;;;5025464;28;20055;-81
2024/03/17 09:09:55;;;;;;;9.05;5.00;;;;;;;;;;5000622;28;20080;-81
2024/03/17 09:12:20;;;;;;;6.28;4.30;;;;;;;;;;5028931;28;20683;-81
2024/03/17 09:14:49;;;;;;;7.57;4.38;;;;;;;;;;5028601;28;20067;-81
2024/03/17 09:17:14;;;;;;;;;;;;;;;;;;5014151;28;20478;-81
2024/03/17 09:19:40;;;;;;;6.43;4.63;;;;;;;;;;5017671;28;19927;-80
2024/03/17 09:22:05;;;;;;;8.10;4.70;;;;;;;;;;5027127;28;20099;-81
2024/03/17 09:24:30;;;;;;;8.90;4.43;;;;;;;;;;5023579;28;20048;-80
2024/03/17 09:26:56;;;;;;;8.02;4.38;;;;;;;;;;5003960;28;20061;-81
2024/03/17 09:29:21;;;;;;;8.60;4.72;;;;;;;;;;5035121;28;20057;-81
2024/03/17 09:31:47;;;;;;;7.90;5.22;;;;;;;;;;5012996;28;20049;-82
2024/03/17 09:34:12;;;;;;;8.13;5.20;;;;;;;;;;5012646;28;20059;-82
2024/03/17 09:36:38;;;;;;;7.75;5.18;;;;;;;;;;5009887;28;20079;-81
2024/03/17 09:39:05;;;;;;;7.55;4.35;;;;;;;;;;5019740;28;20434;-81
2024/03/17 09:41:30;;;;;;;8.32;5.10;;;;;;;;;;5018423;28;20041;-81
2024/03/17 09:43:57;;;;;;;8.73;5.40;;;;;;;;;;5021765;28;20049;-81
2024/03/17 09:46:22;;;;;;;8.90;5.22;;;;;;;;;;5022110;28;20052;-81
2024/03/17 09:48:48;;;;;;;9.93;5.13;;;;;;;;;;5037993;28;20080;-80
2024/03/17 09:51:18;;;;;;;8.60;5.57;;;;;;;;;;5039933;28;20478;-80
2024/03/17 09:53:43;;;;;;;8.70;5.65;;;;;;;;;;5029592;28;20072;-80
2024/03/17 09:56:13;;;;;;;7.32;4.72;;;;;;;;;;5005423;28;20116;-79
2024/03/17 09:58:39;;;;;;;8.80;4.60;;;;;;;;;;5004805;28;20829;-79
2024/03/17 10:01:05;;;;;;;8.88;5.35;;;;;;;;;;5020755;28;20045;-79
2024/03/17 10:03:49;;;;;;;8.02;5.50;;;;;;;;;;5023939;28;21240;-80
2024/03/17 10:06:15;;;;;;;8.70;4.38;;;;;;;;;;5016607;28;20053;-80
2024/03/17 10:08:41;;;;;;;9.57;5.65;;;;;;;;;;5021084;28;20048;-80
2024/03/17 10:11:08;;;;;;;10.52;6.32;;;;;;;;;;5020883;28;20045;-81
2024/03/17 10:13:33;;;;;;;10.40;6.10;;;;;;;;;;5021030;28;20056;-80
2024/03/17 10:15:59;;;;;;;8.38;5.78;;;;;;;;;;5023464;28;20053;-79
2024/03/17 10:18:24;;;;;;;7.82;5.88;;;;;;;;;;5031389;28;20068;-80
2024/03/17 10:20:54;;;;;;;9.60;5.97;;;;;;;;;;5015622;28;20056;-78
2024/03/17 10:23:20;;;;;;;10.93;6.88;;;;;;;;;;5014765;28;20045;-77
2024/03/17 10:25:45;;;;;;;10.00;5.85;;;;;;;;;;5031030;28;20717;-78
2024/03/17 10:28:11;;;;;;;11.65;6.75;;;;;;;;;;5034258;28;20188;-79
2024/03/17 10:30:38;;;;;;;8.20;5.95;;;;;;;;;;5025237;28;20049;-81
2024/03/17 10:33:06;;;;;;;10.05;6.55;;;;;;;;;;5011591;28;20057;-79
2024/03/17 10:35:38;;;;;;;9.93;4.85;;;;;;;;;;5032378;28;20158;-79
2024/03/17 10:38:04;;;;;;;8.57;5.72;;;;;;;;;;5014899;28;20187;-80
2024/03/17 10:40:30;;;;;;;10.13;6.43;;;;;;;;;;5032839;28;20057;-80
2024/03/17 10:42:57;;;;;;;10.90;6.20;;;;;;;;;;5026625;28;20072;-81
2024/03/17 10:45:22;;;;;;;11.82;6.25;;;;;;;;;;5026229;28;20053;-79
2024/03/17 10:47:49;;;;;;;8.30;6.15;;;;;;;;;;5024170;28;20048;-80
2024/03/17 10:50:22;;;;;;;8.93;6.53;;;;;;;;;;5029118;28;20057;-83
2024/03/17 10:52:51;;;;;;;11.00;5.88;;;;;;;;;;5021511;28;20061;-92
2024/03/17 10:55:24;;;;;;;8.30;5.97;;;;;;;;;;5029196;28;20416;-83
2024/03/17 10:57:53;;;;;;;9.07;6.50;;;;;;;;;;5026183;28;20052;-81
2024/03/17 11:00:21;;;;;;;7.25;5.93;;;;;;;;;;5021003;28;20554;-85
2024/03/17 11:02:51;;;;;;;8.65;5.20;;;;;;;;;;5014910;28;20058;-89
2024/03/17 11:05:20;;;;;;;9.60;6.30;;;;;;;;;;5011373;28;20469;-85
2024/03/17 11:07:46;;;;;;;;;;;;;;;;;;5031476;28;20041;-82
2024/03/17 11:10:16;;;;;;;8.75;5.90;;;;;;;;;;5026356;28;19982;-83
2024/03/17 11:12:46;;;;;;;8.30;5.30;;;;;;;;;;5021832;28;20053;-84
2024/03/17 11:15:33;;;;;;;10.30;6.00;;;;;;;;;;5036823;28;20099;-83
2024/03/17 11:18:08;;;;;;;8.98;5.95;;;;;;;;;;5021155;28;20508;-86
2024/03/17 11:20:34;;;;;;;10.40;5.65;;;;;;;;;;5015050;28;20049;-86
2024/03/17 11:23:00;;;;;;;7.68;5.70;;;;;;;;;;5016327;28;20037;-84
2024/03/17 11:25:25;;;;;;;10.98;6.00;;;;;;;;;;5020554;28;20052;-81
2024/03/17 11:27:51;;;;;;;11.55;5.97;;;;;;;;;;5010151;28;20044;-85
2024/03/17 11:30:35;;;;;;;8.23;5.93;;;;;;;;;;5021820;28;20048;-82
2024/03/17 11:33:03;;;;;;;7.90;5.55;;;;;;;;;;5027631;28;20528;-83
2024/03/17 11:35:29;;;;;;;8.88;6.10;;;;;;;;;;5008586;28;20068;-87
2024/03/17 11:37:55;;;;;;;8.75;5.65;;;;;;;;;;5027592;28;20041;-85
2024/03/17 11:40:24;;;;;;;7.55;5.57;;;;;;;;;;5016510;28;20060;-84
2024/03/17 11:43:04;;;;;;;10.77;6.63;;;;;;;;;;5016780;28;20421;-82
2024/03/17 11:45:30;;;;;;;8.88;5.88;;;;;;;;;;5031256;28;20068;-84
2024/03/17 11:47:56;;;;;;;9.35;7.68;;;;;;;;;;5042829;28;20049;-84
2024/03/17 11:50:21;;;;;;;10.38;5.85;;;;;;;;;;5035649;28;20103;-83
2024/03/17 11:52:56;;;;;;;9.30;5.90;;;;;;;;;;5026231;28;20049;-81
2024/03/17 11:55:22;;;;;;;10.85;6.13;;;;;;;;;;5012704;28;20042;-80
2024/03/17 11:57:54;;;;;;;8.73;6.20;;;;;;;;;;5013366;28;20064;-78
2024/03/17 12:00:23;;;;;;;10.25;6.60;;;;;;;;;;5009843;28;20056;-79
2024/03/17 12:02:49;;;;;;;7.63;5.80;;;;;;;;;;5031726;28;20056;-78
2024/03/17 12:05:14;;;;;;;10.32;6.25;;;;;;;;;;5011075;28;20058;-78
2024/03/17 12:07:43;;;;;;;7.80;6.20;;;;;;;;;;5010936;28;20059;-78
2024/03/17 12:10:13;;;;;;;8.95;5.63;;;;;;;;;;5014634;28;20041;-78
2024/03/17 12:12:39;;;;;;;10.43;6.75;;;;;;;;;;4999741;28;20494;-78
2024/03/17 12:15:16;;;;;;;8.27;5.72;;;;;;;;;;5010999;28;20050;-78
2024/03/17 12:17:42;;;;;;;9.47;6.07;;;;;;;;;;5006573;28;20056;-78
2024/03/17 12:20:17;;;;;;;8.73;5.43;;;;;;;;;;5028344;28;20289;-78
2024/03/17 12:22:43;;;;;;;8.70;5.68;;;;;;;;;;5017518;28;20140;-78
2024/03/17 12:25:15;;;;;;;7.72;5.20;;;;;;;;;;5001920;28;20591;-79
2024/03/17 12:27:43;;;;;;;8.57;6.00;;;;;;;;;;5016608;28;20057;-79
2024/03/17 12:30:10;;;;;;;9.95;6.80;;;;;;;;;;5039389;28;20048;-81
2024/03/17 12:32:35;;;;;;;10.02;6.70;;;;;;;;;;5030313;28;20049;-82
2024/03/17 12:35:02;;;;;;;10.32;6.57;;;;;;;;;;5019385;28;20057;-81
2024/03/17 12:37:32;;;;;;;8.82;6.10;;;;;;;;;;5024036;28;20103;-81
2024/03/17 12:39:59;;;;;;;12.43;5.72;;;;;;;;;;5021487;28;20075;-81
2024/03/17 12:42:26;;;;;;;8.85;5.63;;;;;;;;;;5015457;28;20057;-81
2024/03/17 12:44:58;;;;;;;9.85;6.85;;;;;;;;;;5026379;28;20053;-81
2024/03/17 12:47:28;;;;;;;8.73;6.22;;;;;;;;;;5030452;28;20052;-81
2024/03/17 12:49:55;;;;;;;10.23;6.28;;;;;;;;;;5035719;28;20052;-79
2024/03/17 12:52:23;;;;;;;9.68;6.85;;;;;;;;;;5022703;28;20049;-80
2024/03/17 13:01:01;;;;;;;9.05;6.15;;;;;;;;;;5019558;28;20551;-80
2024/03/17 13:03:28;;;;;;;10.77;6.47;;;;;;;;;;5025421;28;20403;-80
2024/03/17 13:05:54;;;;;;;11.23;6.57;;;;;;;;;;5017241;28;20056;-80
2024/03/17 13:08:20;;;;;;;10.48;5.80;;;;;;;;;;5013167;28;20053;-82
2024/03/17 13:10:47;;;;;;;10.68;6.90;;;;;;;;;;5021761;28;20064;-84
2024/03/17 13:13:15;;;;;;;10.70;6.38;;;;;;;;;;5028176;28;20053;-85
2024/03/17 13:15:41;;;;;;;9.23;6.15;;;;;;;;;;5026578;28;20049;-86
2024/03/17 13:18:07;;;;;;;10.75;6.53;;;;;;;;;;5029792;28;20057;-86
2024/03/17 13:20:34;;;;;;;10.60;6.40;;;;;;;;;;5014151;28;20425;-81
2024/03/17 13:23:00;;;;;;;11.27;7.22;;;;;;;;;;5034528;28;20052;-82
2024/03/17 13:25:27;;;;;;;11.68;6.25;;;;;;;;;;5047203;28;20076;-83
2024/03/17 13:27:53;;;;;;;9.38;6.10;;;;;;;;;;5021727;28;20059;-85
2024/03/17 13:30:21;;;;;;;11.30;6.68;;;;;;;;;;5041878;28;20113;-87
2024/03/17 13:32:46;;;;;;;10.48;6.20;;;;;;;;;;5025629;28;20056;-84
2024/03/17 13:35:14;;;;;;;10.95;6.55;;;;;;;;;;5018678;28;20064;-85
2024/03/17 13:37:39;;;;;;;9.60;6.32;;;;;;;;;;5031716;28;20376;-85
2024/03/17 13:40:05;;;;;;;11.57;6.93;;;;;;;;;;5019214;28;20068;-87
2024/03/17 13:42:31;;;;;;;11.13;6.75;;;;;;;;;;5013983;28;20584;-87
2024/03/17 13:44:56;;;;;;;9.35;6.18;;;;;;;;;;5026356;28;20901;-85
2024/03/17 13:47:22;;;;;;;14.60;7.38;;;;;;;;;;5025102;28;20489;-86
2024/03/17 13:49:47;;;;;;;13.88;8.25;;;;;;;;;;5038539;28;20045;-87
2024/03/17 13:52:13;;;;;;;14.25;6.65;;;;;;;;;;5031788;28;20135;-86
2024/03/17 13:54:38;;;;;;;10.73;6.65;;;;;;;;;;5024786;28;20053;-84
2024/03/17 13:57:04;;;;;;;13.55;6.85;;;;;;;;;;5031474;28;20048;-82
2024/03/17 13:59:30;;;;;;;8.65;6.15;;;;;;;;;;5018211;28;20061;-84
2024/03/17 14:01:56;;;;;;;9.13;5.00;;;;;;;;;;5014876;28;20045;-85
2024/03/17 14:04:21;;;;;;;11.68;6.72;;;;;;;;;;5037192;28;20056;-84
2024/03/17 14:06:48;;;;;;;12.32;5.72;;;;;;;;;;5029565;28;20124;-87
2024/03/17 14:09:20;;;;;;;11.23;6.53;;;;;;;;;;5016094;28;20567;-85
2024/03/17 14:11:45;;;;;;;9.55;6.38;;;;;;;;;;5030789;28;20053;-83
2024/03/17 14:14:12;;;;;;;10.32;6.25;;;;;;;;;;5034271;28;20126;-84
2024/03/17 14:16:37;;;;;;;12.63;6.40;;;;;;;;;;5018177;28;20057;-81
2024/03/17 14:19:03;;;;;;;9.35;5.22;;;;;;;;;;5033088;28;20386;-84
2024/03/17 14:21:28;;;;;;;13.77;6.10;;;;;;;;;;5019329;28;20076;-85
2024/03/17 14:23:54;;;;;;;10.55;5.82;;;;;;;;;;5026814;28;20057;-84
2024/03/17 14:26:21;;;;;;;10.98;6.68;;;;;;;;;;5014505;28;20072;-82
2024/03/17 14:28:46;;;;;;;13.45;6.43;;;;;;;;;;5038158;28;20053;-84
2024/03/17 14:31:12;;;;;;;9.98;5.85;;;;;;;;;;5033062;28;20041;-83
2024/03/17 14:33:37;;;;;;;12.27;6.70;;;;;;;;;;5035208;28;20262;-81
2024/03/17 14:36:03;;;;;;;11.45;6.03;;;;;;;;;;5035857;28;20045;-82
2024/03/17 14:38:28;;;;;;;11.15;6.47;;;;;;;;;;5033123;28;20048;-83